createdAt,value
2022-09-28T00:00:54.067Z,95933.00
2022-09-28T00:04:55.183Z,95925.00
2022-09-28T00:08:57.175Z,95927.00
2022-09-28T00:13:00.767Z,95913.00
2022-09-28T00:17:02.014Z,95906.00
2022-09-28T00:21:07.570Z,95910.00
2022-09-28T00:25:09.259Z,95904.00
2022-09-28T00:29:16.772Z,95898.00
2022-09-28T00:33:18.746Z,95896.00
2022-09-28T00:37:20.079Z,95886.00
2022-09-28T00:41:22.066Z,95876.00
2022-09-28T00:45:25.681Z,95867.00
2022-09-28T00:49:30.744Z,95849.00
2022-09-28T00:53:35.915Z,95839.00
2022-09-28T00:57:39.263Z,95832.00
2022-09-28T01:01:40.486Z,95831.00
2022-09-28T01:05:42.920Z,95827.00
2022-09-28T01:09:45.399Z,95823.00
2022-09-28T01:13:49.638Z,95819.00
2022-09-28T01:18:23.358Z,95817.00
2022-09-28T01:22:51.012Z,95803.00
2022-09-28T01:27:17.118Z,95812.00
2022-09-28T01:31:21.722Z,95799.00
2022-09-28T01:35:30.618Z,95800.00
2022-09-28T01:39:38.293Z,95797.00
2022-09-28T01:43:43.319Z,95798.00
2022-09-28T01:47:46.790Z,95796.00
2022-09-28T01:52:06.474Z,95786.00
2022-09-28T01:56:14.502Z,95780.00
2022-09-28T02:00:18.755Z,95776.00
2022-09-28T02:04:26.444Z,95773.00
2022-09-28T02:08:37.372Z,95764.00
2022-09-28T02:12:42.324Z,95763.00
2022-09-28T02:16:46.492Z,95761.00
2022-09-28T02:21:06.330Z,95755.00
2022-09-28T02:25:26.542Z,95751.00
2022-09-28T02:29:27.721Z,95751.00
2022-09-28T02:33:40.760Z,95740.00
2022-09-28T02:37:42.904Z,95737.00
2022-09-28T02:41:47.883Z,95741.00
2022-09-28T02:46:21.513Z,95736.00
2022-09-28T02:50:53.761Z,95735.00
2022-09-28T02:55:33.520Z,95741.00
2022-09-28T02:59:47.781Z,95734.00
2022-09-28T03:03:52.688Z,95736.00
2022-09-28T03:08:00.048Z,95733.00
2022-09-28T03:12:10.720Z,95736.00
2022-09-28T03:16:17.654Z,95739.00
2022-09-28T03:20:19.345Z,95745.00
2022-09-28T03:24:20.444Z,95745.00
2022-09-28T03:28:22.227Z,95746.00
2022-09-28T03:32:23.247Z,95739.00
2022-09-28T03:36:24.650Z,95752.00
2022-09-28T03:40:25.770Z,95744.00
2022-09-28T03:44:27.027Z,95750.00
2022-09-28T03:48:32.631Z,95743.00
2022-09-28T03:52:33.702Z,95729.00
2022-09-28T03:56:34.881Z,95750.00
2022-09-28T04:00:38.152Z,95743.00
2022-09-28T04:04:39.115Z,95745.00
2022-09-28T04:08:40.121Z,95743.00
2022-09-28T04:12:41.074Z,95744.00
2022-09-28T04:16:42.090Z,95749.00
2022-09-28T04:20:45.018Z,95750.00
2022-09-28T04:24:46.124Z,95751.00
2022-09-28T04:29:06.944Z,95745.00
2022-09-28T04:33:08.012Z,95746.00
2022-09-28T04:37:08.960Z,95749.00
2022-09-28T04:41:11.259Z,95750.00
2022-09-28T04:45:12.181Z,95752.00
2022-09-28T04:49:13.295Z,95762.00
2022-09-28T04:53:14.462Z,95763.00
2022-09-28T04:57:15.429Z,95759.00
2022-09-28T05:01:19.270Z,95768.00
2022-09-28T05:05:20.468Z,95765.00
2022-09-28T05:09:21.395Z,95771.00
2022-09-28T05:13:22.347Z,95775.00
2022-09-28T05:17:23.326Z,95782.00
2022-09-28T05:21:25.822Z,95783.00
2022-09-28T05:25:26.850Z,95787.00
2022-09-28T05:29:31.902Z,95788.00
2022-09-28T05:33:31.919Z,95794.00
2022-09-28T05:37:33.046Z,95790.00
2022-09-28T05:41:34.023Z,95801.00
2022-09-28T05:45:35.191Z,95798.00
2022-09-28T05:49:36.132Z,95800.00
2022-09-28T05:53:37.079Z,95802.00
2022-09-28T05:57:38.447Z,95801.00
2022-09-28T06:01:39.475Z,95807.00
2022-09-28T06:05:40.959Z,95808.00
2022-09-28T06:09:42.020Z,95811.00
2022-09-28T06:13:43.021Z,95811.00
2022-09-28T06:17:44.013Z,95813.00
2022-09-28T06:21:47.093Z,95822.00
2022-09-28T06:25:48.162Z,95817.00
2022-09-28T06:29:49.202Z,95822.00
2022-09-28T06:33:51.093Z,95838.00
2022-09-28T06:37:52.459Z,95826.00
2022-09-28T06:41:53.344Z,95833.00
2022-09-28T06:45:54.602Z,95834.00
2022-09-28T06:49:55.614Z,95832.00
2022-09-28T06:53:56.872Z,95837.00
2022-09-28T06:58:03.683Z,95847.00
2022-09-28T07:02:04.784Z,95855.00
2022-09-28T07:06:05.975Z,95857.00
2022-09-28T07:10:10.481Z,95870.00
2022-09-28T07:14:19.269Z,95869.00
2022-09-28T07:18:14.995Z,95878.00
2022-09-28T07:22:18.777Z,95882.00
2022-09-28T07:26:22.999Z,95887.00
2022-09-28T07:30:23.776Z,95883.00
2022-09-28T07:34:25.001Z,95896.00
2022-09-28T07:38:26.535Z,95900.00
2022-09-28T07:42:29.229Z,95907.00
2022-09-28T07:46:34.389Z,95912.00
2022-09-28T07:50:35.314Z,95914.00
2022-09-28T07:54:38.296Z,95916.00
2022-09-28T07:58:39.512Z,95926.00
2022-09-28T08:02:40.671Z,95929.00
2022-09-28T08:06:43.038Z,95934.00
2022-09-28T08:10:47.332Z,95952.00
2022-09-28T08:14:48.544Z,95951.00
2022-09-28T08:18:49.792Z,95956.00
2022-09-28T08:22:50.926Z,95955.00
2022-09-28T08:26:52.813Z,95956.00
2022-09-28T08:30:54.025Z,95883.00
2022-09-28T08:34:55.417Z,95979.00
2022-09-28T08:38:56.569Z,95986.00
2022-09-28T08:43:07.470Z,95980.00
2022-09-28T08:47:36.994Z,95989.00
2022-09-28T08:52:02.381Z,95991.00
2022-09-28T08:56:06.929Z,96004.00
2022-09-28T09:00:12.068Z,96000.00
2022-09-28T09:04:13.921Z,95998.00
2022-09-28T09:08:27.784Z,96000.00
2022-09-28T09:12:50.764Z,95998.00
2022-09-28T09:17:07.399Z,96004.00
2022-09-28T09:21:17.797Z,96014.00
2022-09-28T09:25:25.311Z,96015.00
2022-09-28T09:29:52.573Z,96018.00
2022-09-28T09:34:11.522Z,96027.00
2022-09-28T09:38:28.231Z,96022.00
2022-09-28T09:42:41.260Z,96029.00
2022-09-28T09:46:55.220Z,96028.00
2022-09-28T09:51:05.398Z,96033.00
2022-09-28T09:55:30.023Z,96032.00
2022-09-28T09:59:33.350Z,96026.00
2022-09-28T10:03:38.491Z,96033.00
2022-09-28T10:07:46.241Z,96032.00
2022-09-28T10:11:49.524Z,96029.00
2022-09-28T10:15:53.887Z,96030.00
2022-09-28T10:19:56.345Z,96016.00
2022-09-28T10:24:01.585Z,96016.00
2022-09-28T10:28:05.745Z,96029.00
2022-09-28T10:32:19.038Z,96035.00
2022-09-28T10:36:20.113Z,96039.00
2022-09-28T10:40:46.370Z,96049.00
2022-09-28T10:44:56.090Z,96043.00
2022-09-28T10:49:04.129Z,96053.00
2022-09-28T10:53:19.852Z,96055.00
2022-09-28T10:57:35.590Z,96048.00
2022-09-28T11:01:36.821Z,96059.00
2022-09-28T11:05:39.614Z,96056.00
2022-09-28T11:09:44.674Z,96064.00
2022-09-28T11:13:49.430Z,96063.00
2022-09-28T11:17:50.456Z,96059.00
2022-09-28T11:21:51.799Z,96062.00
2022-09-28T11:26:07.573Z,96059.00
2022-09-28T11:30:27.767Z,96075.00
2022-09-28T11:34:54.905Z,96072.00
2022-09-28T11:38:57.716Z,96068.00
2022-09-28T11:43:09.091Z,96056.00
2022-09-28T11:47:42.266Z,96060.00
2022-09-28T11:51:45.589Z,96060.00
2022-09-28T11:55:59.635Z,96061.00
2022-09-28T12:00:10.027Z,96059.00
2022-09-28T12:08:29.854Z,96061.00
2022-09-28T12:12:34.748Z,96063.00
2022-09-28T12:17:11.515Z,96055.00
2022-09-28T12:21:12.151Z,96059.00
2022-09-28T12:25:16.926Z,96045.00
2022-09-28T12:29:21.795Z,96050.00
2022-09-28T12:33:23.065Z,96056.00
2022-09-28T12:37:36.713Z,96052.00
2022-09-28T12:41:41.865Z,96048.00
2022-09-28T12:46:13.970Z,96051.00
2022-09-28T12:50:38.522Z,96047.00
2022-09-28T12:54:33.982Z,96048.00
2022-09-28T12:58:41.625Z,96059.00
2022-09-28T13:03:05.403Z,96069.00
2022-09-28T13:07:28.344Z,96064.00
2022-09-28T13:11:36.279Z,96072.00
2022-09-28T13:15:50.353Z,96075.00
2022-09-28T13:20:00.890Z,96071.00
2022-09-28T13:24:27.855Z,96070.00
2022-09-28T13:28:10.931Z,96064.00
2022-09-28T13:32:13.260Z,96055.00
2022-09-28T13:36:33.294Z,96058.00
2022-09-28T13:41:08.865Z,96054.00
2022-09-28T13:45:24.563Z,96058.00
2022-09-28T13:49:38.851Z,96063.00
2022-09-28T13:54:03.323Z,96061.00
2022-09-28T13:58:32.137Z,96069.00
2022-09-28T14:02:37.371Z,96062.00
2022-09-28T14:06:48.699Z,96069.00
2022-09-28T14:10:55.401Z,96073.00
2022-09-28T14:14:56.839Z,96074.00
2022-09-28T14:19:07.692Z,96076.00
2022-09-28T14:23:12.598Z,96078.00
2022-09-28T14:27:29.067Z,96078.00
2022-09-28T14:31:31.428Z,96080.00
2022-09-28T14:35:41.024Z,96091.00
2022-09-28T14:40:05.199Z,96094.00
2022-09-28T14:44:09.050Z,96093.00
2022-09-28T14:48:14.710Z,96096.00
2022-09-28T14:52:18.795Z,96089.00
2022-09-28T14:56:20.638Z,96093.00
2022-09-28T15:00:25.413Z,96101.00
2022-09-28T15:04:29.230Z,96091.00
2022-09-28T15:08:38.438Z,96104.00
2022-09-28T15:12:42.987Z,96097.00
2022-09-28T15:16:44.531Z,96100.00
2022-09-28T15:20:48.468Z,96101.00
2022-09-28T15:25:02.219Z,96103.00
2022-09-28T15:29:04.431Z,96106.00
2022-09-28T15:33:23.907Z,96105.00
2022-09-28T15:37:28.806Z,96112.00
2022-09-28T15:41:30.623Z,96113.00
2022-09-28T15:45:37.981Z,96110.00
2022-09-28T15:49:59.763Z,96116.00
2022-09-28T15:54:13.166Z,96117.00
2022-09-28T15:58:19.866Z,96120.00
2022-09-28T16:02:25.026Z,96128.00
2022-09-28T16:06:26.217Z,96125.00
2022-09-28T16:10:31.529Z,96130.00
2022-09-28T16:14:32.613Z,96127.00
2022-09-28T16:18:37.367Z,96132.00
2022-09-28T16:22:42.375Z,96132.00
2022-09-28T16:26:43.871Z,96136.00
2022-09-28T16:31:01.128Z,96141.00
2022-09-28T16:35:20.788Z,96141.00
2022-09-28T16:39:21.864Z,96139.00
2022-09-28T16:43:29.875Z,96140.00
2022-09-28T16:47:33.426Z,96145.00
2022-09-28T16:51:34.871Z,96147.00
2022-09-28T16:55:40.619Z,96144.00
2022-09-28T16:59:41.197Z,96154.00
2022-09-28T17:03:44.786Z,96154.00
2022-09-28T17:07:51.912Z,96156.00
2022-09-28T17:11:54.987Z,96169.00
2022-09-28T17:15:56.982Z,96166.00
2022-09-28T17:19:59.418Z,96171.00
2022-09-28T17:24:00.862Z,96174.00
2022-09-28T17:28:02.570Z,96176.00
2022-09-28T17:32:07.617Z,96179.00
2022-09-28T17:36:11.824Z,96187.00
2022-09-28T17:40:23.753Z,96183.00
2022-09-28T17:44:24.847Z,96196.00
2022-09-28T17:48:27.908Z,96201.00
2022-09-28T17:52:30.138Z,96204.00
2022-09-28T17:56:33.845Z,96199.00
2022-09-28T18:00:38.067Z,96203.00
2022-09-28T18:04:51.850Z,96196.00
2022-09-28T18:08:43.217Z,96204.00
2022-09-28T18:12:46.113Z,96206.00
2022-09-28T18:16:48.383Z,96195.00
2022-09-28T18:20:50.677Z,96198.00
2022-09-28T18:24:51.669Z,96200.00
2022-09-28T18:28:56.210Z,96205.00
2022-09-28T18:32:58.145Z,96208.00
2022-09-28T18:37:01.267Z,96219.00
2022-09-28T18:41:11.258Z,96211.00
2022-09-28T18:45:14.878Z,96214.00
2022-09-28T18:49:17.451Z,96227.00
2022-09-28T18:53:19.573Z,96219.00
2022-09-28T18:57:20.886Z,96240.00
2022-09-28T19:01:31.104Z,96236.00
2022-09-28T19:05:26.899Z,96236.00
2022-09-28T19:09:28.912Z,96235.00
2022-09-28T19:13:32.998Z,96232.00
2022-09-28T19:17:35.819Z,96232.00
2022-09-28T19:21:37.953Z,96237.00
2022-09-28T19:25:40.484Z,96237.00
2022-09-28T19:29:42.560Z,96248.00
2022-09-28T19:33:45.669Z,96240.00
2022-09-28T19:37:48.681Z,96239.00
2022-09-28T19:41:50.585Z,96244.00
2022-09-28T19:45:54.731Z,96245.00
2022-09-28T19:49:55.913Z,96245.00
2022-09-28T19:53:58.222Z,96240.00
2022-09-28T19:58:01.610Z,96246.00
2022-09-28T20:02:03.566Z,96242.00
2022-09-28T20:06:05.929Z,96248.00
2022-09-28T20:10:10.494Z,96251.00
2022-09-28T20:14:17.897Z,96248.00
2022-09-28T20:18:19.991Z,96283.00
2022-09-28T20:22:21.141Z,96288.00
2022-09-28T20:26:23.203Z,96286.00
2022-09-28T20:30:24.222Z,96289.00
2022-09-28T20:34:25.562Z,96303.00
2022-09-28T20:38:26.917Z,96299.00
2022-09-28T20:42:29.995Z,96295.00
2022-09-28T20:46:31.172Z,96297.00
2022-09-28T20:50:33.336Z,96294.00
2022-09-28T20:54:34.531Z,96296.00
2022-09-28T20:58:39.041Z,96292.00
2022-09-28T21:02:40.306Z,96305.00
2022-09-28T21:06:41.872Z,96299.00
2022-09-28T21:10:43.823Z,96291.00
2022-09-28T21:14:45.470Z,96307.00
2022-09-28T21:18:47.394Z,96302.00
2022-09-28T21:22:48.481Z,96303.00
2022-09-28T21:26:49.597Z,96301.00
2022-09-28T21:30:51.031Z,96300.00
2022-09-28T21:34:52.486Z,96292.00
2022-09-28T21:38:55.473Z,96305.00
2022-09-28T21:42:56.631Z,96292.00
2022-09-28T21:46:57.682Z,96283.00
2022-09-28T21:51:04.192Z,96284.00
2022-09-28T21:55:06.039Z,96294.00
2022-09-28T21:59:07.124Z,96282.00
2022-09-28T22:03:08.539Z,96287.00
2022-09-28T22:07:09.693Z,96280.00
2022-09-28T22:11:13.343Z,96294.00
2022-09-28T22:15:14.381Z,96297.00
2022-09-28T22:19:15.598Z,96298.00
2022-09-28T22:23:16.485Z,96302.00
2022-09-28T22:27:17.863Z,96293.00
2022-09-28T22:31:22.301Z,96289.00
2022-09-28T22:35:23.412Z,96292.00
2022-09-28T22:39:24.876Z,96288.00
2022-09-28T22:43:26.270Z,96291.00
2022-09-28T22:47:27.340Z,96285.00
2022-09-28T22:51:29.662Z,96286.00
2022-09-28T22:55:32.798Z,96284.00
2022-09-28T22:59:33.748Z,96288.00
2022-09-28T23:03:35.233Z,96292.00
2022-09-28T23:07:36.269Z,96280.00
2022-09-28T23:11:37.321Z,96284.00
2022-09-28T23:15:38.332Z,96287.00
2022-09-28T23:19:39.313Z,96289.00
2022-09-28T23:23:41.397Z,96288.00
2022-09-28T23:27:50.018Z,96287.00
2022-09-28T23:31:51.054Z,96288.00
2022-09-28T23:35:52.123Z,96290.00
2022-09-28T23:39:53.700Z,96286.00
2022-09-28T23:43:54.751Z,96280.00
2022-09-28T23:47:56.152Z,96286.00
2022-09-28T23:51:57.179Z,96284.00
2022-09-28T23:55:58.245Z,96291.00
2022-09-28T23:59:59.696Z,96290.00
